AirNav   Air Wisconsin Up To $57,000 Bonus
 
 907 users online  

23FA Ocean Beach Resort Heliport
Miami Beach, Florida, USA

GOING TO MIAMI BEACH?


FAA INFORMATION EFFECTIVE 30 JANUARY 2020

Location

FAA Identifier: 23FA
Lat/Long: 25-49-32.3490N 080-07-16.1620W
25-49.539150N 080-07.269367W
25.8256525,-80.1211561
(estimated)
Elevation: 6 ft. / 2 m (estimated)
Variation: 03W (1985)
Time zone: UTC -5 (UTC -4 during Daylight Saving Time)
Zip code: 33140

Heliport Operations

Heliport use: Private use. Permission required prior to landing
Activation date: 01/1965
Control tower: no
ARTCC: MIAMI CENTER
FSS: MIAMI FLIGHT SERVICE STATION
Attendance: DAWN-DUSK
Wind indicator: yes, WIND CONE IS PORTABLE & REMOVED WHEN NOT IN USE.
Segmented circle: no

Heliport Communications

WX ASOS at MIA (9 nm W): PHONE 305-870-0235
WX ASOS at OPF (10 nm NW): 125.9 (305-681-4063)
WX ASOS at HWO (12 nm NW): PHONE 954-983-5904
WX ASOS at FLL (15 nm N): PHONE 954-359-7857
WX ASOS at TMB (20 nm SW): PHONE 305-235-1332

Nearby radio navigation aids

VOR radial/distance  VOR name  Freq  Var
VKZr026/4.8VIRGINIA KEY VOR/DME117.1004W
DHPr087/12.4DOLPHIN VORTAC113.9004W
FLLr177/15.1FORT LAUDERDALE VOR/DME114.4006W

Heliport Services

Airframe service: NONE
Powerplant service: NONE

Runway Information

Helipad H1

Dimensions: 50 x 40 ft. / 15 x 12 m
ORIENTED N/S
Surface: wood, in fair condition
Operational restrictions: N-S APCHS CLEAR
Latitude: 25-49.539150N
Longitude: 080-07.269367W
Elevation: 6.0 ft.
Traffic pattern: leftleft
Markings: none, in fair condition

Helipad H2

Dimensions: 40 x 50 ft. / 12 x 15 m
ORIENTED E/W DRCTN.
Surface: wood
Traffic pattern: leftleft

Heliport Ownership and Management from official FAA records

Ownership: Privately-owned
Owner: MB FLORIDA LTD, LLC
4835 COLLINS AVE, SUITE 801
MIAMI BEACH, FL 33140
Phone (305) 538-8666
CONTACT: JOEL SIMMONDS
Manager: JOEL SIMMONDS
4835 COLLINS AVE, SUITE 801
MIAMI BEACH, FL 33140
Phone (305) 538-8666

Additional Remarks

A52-H2 TREES & LGT POLES, BLDGS IMMED E; TREES AT 10:1 ON RIVER TO W.
FOR CD CTC MIAMI APCH AT 305-869-5432.

Instrument Procedures

There are no published instrument procedures at 23FA.

Some nearby airports with instrument procedures:

KMIA - Miami International Airport (9 nm W)
KOPF - Miami-Opa Locka Executive Airport (10 nm NW)
KHWO - North Perry Airport (12 nm NW)
KFLL - Fort Lauderdale/Hollywood International Airport (15 nm N)
KTMB - Miami Executive Airport (20 nm SW)
 
Loc | Ops | Rwys | IFR | FBO | Links
Com | Nav | Svcs | Stats | Notes


 
Area around 23FA (Ocean Beach Resort Heliport)
 
Road maps at: MapQuest Bing Google
 
Aerial photo
No photo
 
Sectional chart

 
Airport distance calculator
Flying to Ocean Beach Resort Heliport? Find the distance to fly.

From to 23FA

Sunrise and sunset
Times for 16-Feb-2020
 Local
(UTC-5)
 Zulu
(UTC)
Morning civil twilight06:3211:32
Sunrise06:5611:56
Sunset18:1323:13
Evening civil twilight18:3723:37

Current date and time
Zulu (UTC)  17-Feb-2020 01:12:14
Local (UTC-5)  16-Feb-2020 20:12:14
 
METAR
KOPF 
10nm NW 
170053Z 16003KT 10SM CLR 23/18 A3007 RMK AO2 SLP183 T02330183
KMIA 
11nm W 
170053Z 14004KT 10SM FEW025 24/18 A3006 RMK AO2 SLP179 T02390183
KHWO 
12nm NW 
170053Z 00000KT 10SM CLR 24/19 A3007 RMK AO2 SLP184 T02440189
KFLL 
15nm N 
170053Z 18003KT 10SM FEW027 FEW065 24/19 A3005 RMK AO2 SLP177 T02440189
KTMB 
20nm SW 
170053Z 15003KT 10SM CLR 23/19 A3005 RMK AO2 SLP177 T02330194
TAF
KOPF 
10nm NW 
162123Z 1621/1718 15012KT P6SM FEW035 SCT050 FM170200 VRB04KT P6SM SCT030 BKN040 FM171500 13009KT P6SM SCT025 BKN050
KMIA 
11nm W 
162123Z 1621/1724 13012KT P6SM SCT025 SCT040 FM170200 VRB04KT P6SM SCT030 BKN040 FM171500 13009KT P6SM SCT025 BKN050
KFLL 
15nm N 
162123Z 1621/1724 15012KT P6SM SCT025 BKN060 FM170200 VRB04KT P6SM VCSH SCT030 BKN040 FM171600 14008KT P6SM SCT025 BKN050
KTMB 
20nm SW 
162123Z 1621/1718 13010KT P6SM SCT035 FM170200 VRB04KT P6SM SCT030 BKN040 FM171500 13009KT P6SM SCT025 BKN050
NOTAMs
Click for the latest NOTAMs
NOTAMs are issued by the DoD/FAA and will open in a separate window not controlled by AirNav.

 

 
 

Would you like to see your business listed on this page?

 If your business provides an interesting product or service to pilots, flight crews, aircraft, or users of the Ocean Beach Resort Heliport, you should consider listing it here.  To start the listing process, click on the button below
 
Add a business
 

Other Pages about Ocean Beach Resort Heliport

Update a link
 
Copyright © AirNav, LLC. All rights reserved. Privacy Policy  Contact